createdAt,value
2023-04-15T00:02:21.449Z,78.03
2023-04-15T00:04:49.851Z,78.14
2023-04-15T00:07:19.210Z,77.98
2023-04-15T00:09:47.047Z,79.27
2023-04-15T00:12:14.883Z,78.59
2023-04-15T00:14:42.770Z,79.13
2023-04-15T00:17:10.589Z,79.91
2023-04-15T00:19:38.538Z,80.66
2023-04-15T00:22:06.351Z,80.43
2023-04-15T00:24:35.500Z,80.80
2023-04-15T00:27:03.607Z,81.23
2023-04-15T00:29:31.862Z,80.18
2023-04-15T00:31:59.638Z,80.91
2023-04-15T00:34:28.874Z,82.12
2023-04-15T00:36:56.757Z,81.17
2023-04-15T00:39:24.565Z,80.60
2023-04-15T00:41:54.358Z,82.24
2023-04-15T00:44:22.501Z,82.44
2023-04-15T00:46:52.986Z,82.28
2023-04-15T00:49:20.861Z,82.44
2023-04-15T00:51:49.039Z,82.29
2023-04-15T00:54:17.278Z,81.77
2023-04-15T00:56:45.191Z,82.75
2023-04-15T00:59:15.732Z,83.24
2023-04-15T01:01:45.274Z,83.68
2023-04-15T01:04:13.328Z,83.76
2023-04-15T01:06:41.599Z,84.30
2023-04-15T01:09:09.578Z,85.06
2023-04-15T01:11:39.885Z,84.39
2023-04-15T01:14:10.352Z,84.58
2023-04-15T01:16:41.124Z,85.25
2023-04-15T01:19:12.022Z,86.25
2023-04-15T01:21:40.963Z,87.14
2023-04-15T01:24:11.646Z,87.16
2023-04-15T01:26:43.502Z,86.61
2023-04-15T01:29:12.302Z,86.87
2023-04-15T01:31:40.586Z,86.65
2023-04-15T01:34:08.440Z,86.01
2023-04-15T01:36:36.774Z,86.89
2023-04-15T01:39:05.619Z,86.59
2023-04-15T01:41:33.536Z,86.99
2023-04-15T01:44:02.739Z,86.39
2023-04-15T01:46:30.709Z,86.11
2023-04-15T01:48:58.670Z,86.24
2023-04-15T01:51:27.257Z,86.27
2023-04-15T01:53:56.858Z,86.22
2023-04-15T01:56:25.363Z,86.45
2023-04-15T01:58:53.665Z,86.65
2023-04-15T02:01:23.338Z,86.57
2023-04-15T02:03:52.210Z,86.91
2023-04-15T02:06:20.089Z,87.10
2023-04-15T02:08:49.367Z,87.30
2023-04-15T02:11:17.444Z,87.53
2023-04-15T02:13:45.294Z,87.81
2023-04-15T02:16:20.658Z,87.79
2023-04-15T02:18:49.884Z,87.29
2023-04-15T02:21:18.919Z,87.34
2023-04-15T02:23:48.279Z,87.10
2023-04-15T02:26:16.221Z,87.70
2023-04-15T02:28:43.987Z,88.02
2023-04-15T02:31:14.886Z,87.81
2023-04-15T02:33:42.720Z,88.06
2023-04-15T02:36:12.399Z,88.31
2023-04-15T02:38:42.372Z,88.40
2023-04-15T02:41:10.542Z,88.35
2023-04-15T02:43:39.993Z,88.60
2023-04-15T02:46:12.832Z,88.53
2023-04-15T02:48:40.672Z,88.96
2023-04-15T02:51:15.804Z,89.17
2023-04-15T02:53:44.133Z,88.79
2023-04-15T02:56:12.537Z,89.59
2023-04-15T02:58:41.236Z,89.72
2023-04-15T03:01:09.488Z,89.78
2023-04-15T03:03:38.309Z,89.59
2023-04-15T03:06:06.564Z,89.27
2023-04-15T03:08:36.590Z,90.25
2023-04-15T03:11:04.968Z,90.46
2023-04-15T03:13:34.117Z,90.33
2023-04-15T03:16:09.654Z,90.00
2023-04-15T03:18:38.394Z,90.28
2023-04-15T03:21:06.721Z,90.30
2023-04-15T03:23:38.284Z,89.89
2023-04-15T03:26:06.832Z,90.59
2023-04-15T03:28:35.165Z,91.46
2023-04-15T03:31:03.488Z,91.29
2023-04-15T03:33:31.828Z,92.98
2023-04-15T03:35:59.677Z,94.04
2023-04-15T03:38:27.935Z,94.22
2023-04-15T03:40:57.048Z,94.42
2023-04-15T03:43:24.834Z,94.44
2023-04-15T03:45:52.629Z,94.50
2023-04-15T03:48:20.577Z,93.84
2023-04-15T03:50:48.386Z,93.40
2023-04-15T03:53:16.428Z,93.67
2023-04-15T03:55:44.766Z,93.59
2023-04-15T03:58:13.944Z,92.93
2023-04-15T04:00:42.498Z,93.84
2023-04-15T04:03:10.453Z,95.73
2023-04-15T04:05:39.043Z,96.15
2023-04-15T04:08:07.516Z,96.43
2023-04-15T04:10:35.339Z,95.75
2023-04-15T04:13:03.309Z,95.47
2023-04-15T04:15:32.497Z,95.44
2023-04-15T04:18:00.827Z,95.28
2023-04-15T04:20:28.696Z,94.65
2023-04-15T04:22:56.618Z,94.50
2023-04-15T04:25:24.505Z,94.44
2023-04-15T04:27:52.477Z,94.15
2023-04-15T04:30:20.397Z,94.29
2023-04-15T04:32:51.137Z,95.08
2023-04-15T04:35:18.958Z,95.30
2023-04-15T04:37:46.818Z,96.50
2023-04-15T04:40:14.892Z,96.52
2023-04-15T04:42:42.791Z,96.36
2023-04-15T04:45:11.220Z,96.55
2023-04-15T04:47:39.088Z,96.84
2023-04-15T04:50:10.275Z,96.91
2023-04-15T04:52:38.137Z,96.98
2023-04-15T04:55:08.520Z,97.00
2023-04-15T04:57:37.685Z,96.80
2023-04-15T05:00:07.152Z,96.61
2023-04-15T05:02:35.264Z,96.13
2023-04-15T05:05:03.237Z,96.69
2023-04-15T05:07:32.666Z,97.58
2023-04-15T05:10:01.013Z,97.06
2023-04-15T05:12:28.865Z,96.94
2023-04-15T05:14:56.701Z,96.34
2023-04-15T05:17:24.708Z,96.80
2023-04-15T05:19:53.793Z,96.08
2023-04-15T05:22:21.679Z,96.48
2023-04-15T05:24:50.868Z,97.09
2023-04-15T05:27:19.139Z,97.33
2023-04-15T05:29:47.010Z,96.31
2023-04-15T05:32:15.108Z,95.30
2023-04-15T05:34:42.944Z,95.00
2023-04-15T05:37:10.870Z,92.16
2023-04-15T05:39:38.718Z,89.11
2023-04-15T05:42:08.100Z,86.96
2023-04-15T05:44:36.119Z,86.10
2023-04-15T05:47:05.853Z,84.58
2023-04-15T05:49:33.894Z,82.85
2023-04-15T05:52:01.804Z,82.25
2023-04-15T05:54:29.574Z,79.33
2023-04-15T05:56:57.600Z,76.96
2023-04-15T05:59:27.131Z,75.54
2023-04-15T06:01:55.055Z,73.85
2023-04-15T06:04:23.076Z,70.84
2023-04-15T06:06:51.284Z,69.05
2023-04-15T06:09:19.065Z,68.01
2023-04-15T06:11:46.875Z,64.98
2023-04-15T06:14:14.709Z,66.68
2023-04-15T06:16:44.132Z,64.12
2023-04-15T06:19:12.395Z,61.94
2023-04-15T06:21:40.548Z,60.59
2023-04-15T06:24:08.601Z,60.46
2023-04-15T06:26:36.437Z,59.41
2023-04-15T06:29:04.337Z,58.86
2023-04-15T06:31:32.287Z,56.76
2023-04-15T06:34:01.593Z,55.56
2023-04-15T06:36:29.586Z,58.19
2023-04-15T06:38:57.631Z,57.07
2023-04-15T06:41:26.049Z,55.80
2023-04-15T06:43:53.953Z,55.39
2023-04-15T06:46:22.236Z,54.88
2023-04-15T06:48:50.467Z,56.27
2023-04-15T06:51:19.827Z,56.09
2023-04-15T06:53:47.603Z,54.98
2023-04-15T06:56:15.865Z,54.35
2023-04-15T06:58:43.767Z,54.96
2023-04-15T07:01:11.771Z,55.36
2023-04-15T07:03:39.738Z,53.59
2023-04-15T07:06:08.759Z,52.07
2023-04-15T07:08:38.149Z,51.93
2023-04-15T07:11:06.180Z,51.78
2023-04-15T07:13:34.163Z,50.09
2023-04-15T07:16:02.366Z,51.03
2023-04-15T07:18:30.499Z,51.39
2023-04-15T07:20:58.367Z,50.85
2023-04-15T07:23:26.266Z,49.30
2023-04-15T07:25:55.787Z,46.92
2023-04-15T07:28:23.677Z,46.78
2023-04-15T07:30:51.652Z,47.88
2023-04-15T07:33:19.622Z,49.17
2023-04-15T07:35:47.585Z,48.71
2023-04-15T07:38:15.641Z,49.06
2023-04-15T07:40:43.626Z,50.22
2023-04-15T07:43:13.645Z,50.88
2023-04-15T07:45:41.707Z,51.82
2023-04-15T07:48:09.595Z,51.74
2023-04-15T07:50:38.048Z,52.15
2023-04-15T07:53:07.222Z,51.14
2023-04-15T07:55:35.069Z,50.32
2023-04-15T07:58:02.957Z,50.48
2023-04-15T08:00:32.280Z,52.54
2023-04-15T08:03:00.389Z,51.70
2023-04-15T08:05:28.751Z,50.53
2023-04-15T08:07:57.294Z,49.83
2023-04-15T08:10:25.190Z,50.96
2023-04-15T08:12:54.328Z,51.72
2023-04-15T08:15:22.572Z,50.29
2023-04-15T08:17:51.796Z,48.75
2023-04-15T08:20:19.947Z,48.29
2023-04-15T08:22:51.818Z,48.12
2023-04-15T08:25:20.463Z,48.48
2023-04-15T08:27:48.432Z,48.19
2023-04-15T08:30:16.418Z,51.54
2023-04-15T08:32:47.539Z,48.97
2023-04-15T08:35:16.933Z,48.54
2023-04-15T08:37:44.815Z,49.07
2023-04-15T08:40:13.569Z,47.96
2023-04-15T08:42:50.170Z,47.22
2023-04-15T08:45:19.252Z,49.62
2023-04-15T08:47:49.348Z,47.30
2023-04-15T08:50:19.738Z,46.85
2023-04-15T08:52:47.927Z,46.79
2023-04-15T08:55:17.287Z,45.27
2023-04-15T08:57:45.351Z,44.34
2023-04-15T09:00:15.000Z,43.52
2023-04-15T09:02:44.061Z,44.30
2023-04-15T09:05:12.251Z,44.30
2023-04-15T09:07:41.942Z,45.78
2023-04-15T09:10:11.043Z,44.44
2023-04-15T09:12:38.907Z,42.53
2023-04-15T09:15:07.967Z,42.42
2023-04-15T09:17:36.026Z,41.80
2023-04-15T09:20:11.266Z,40.76
2023-04-15T09:22:39.711Z,40.11
2023-04-15T09:25:27.535Z,41.20
2023-04-15T09:27:57.485Z,41.20
2023-04-15T09:30:25.915Z,39.92
2023-04-15T09:32:54.873Z,38.85
2023-04-15T09:35:24.043Z,39.63
2023-04-15T09:37:52.453Z,38.04
2023-04-15T09:40:34.620Z,39.60
2023-04-15T09:43:03.140Z,39.30
2023-04-15T09:45:31.045Z,37.57
2023-04-15T09:47:59.914Z,37.82
2023-04-15T09:50:29.987Z,38.26
2023-04-15T09:52:58.062Z,40.65
2023-04-15T09:55:26.291Z,39.24
2023-04-15T09:57:57.690Z,39.14
2023-04-15T10:00:28.680Z,38.20
2023-04-15T10:02:57.381Z,37.94
2023-04-15T10:05:29.836Z,40.09
2023-04-15T10:07:58.625Z,37.60
2023-04-15T10:10:26.668Z,38.65
2023-04-15T10:12:56.279Z,37.32
2023-04-15T10:15:25.526Z,37.79
2023-04-15T10:17:55.798Z,37.79
2023-04-15T10:20:24.421Z,37.92
2023-04-15T10:22:54.013Z,37.90
2023-04-15T10:25:23.469Z,37.84
2023-04-15T10:27:52.871Z,39.09
2023-04-15T10:30:23.212Z,38.89
2023-04-15T10:32:51.640Z,39.58
2023-04-15T10:35:21.661Z,38.65
2023-04-15T10:37:49.464Z,38.48
2023-04-15T10:40:27.287Z,38.00
2023-04-15T10:42:57.096Z,37.94
2023-04-15T10:45:28.695Z,40.97
2023-04-15T10:47:57.404Z,40.64
2023-04-15T10:50:28.157Z,42.19
2023-04-15T10:52:57.442Z,42.12
2023-04-15T10:55:27.417Z,43.75
2023-04-15T10:57:59.289Z,43.31
2023-04-15T11:00:31.040Z,44.26
2023-04-15T11:03:00.764Z,46.00
2023-04-15T11:05:53.130Z,45.97
2023-04-15T11:08:21.730Z,45.96
2023-04-15T11:10:54.693Z,45.93
2023-04-15T11:13:29.237Z,46.17
2023-04-15T11:16:03.325Z,47.94
2023-04-15T11:18:38.064Z,46.20
2023-04-15T11:21:07.818Z,46.10
2023-04-15T11:23:38.577Z,46.77
2023-04-15T11:26:09.545Z,43.97
2023-04-15T11:28:39.175Z,45.45
2023-04-15T11:31:11.261Z,47.90
2023-04-15T11:33:54.589Z,47.31
2023-04-15T11:36:22.505Z,47.70
2023-04-15T11:38:50.458Z,47.93
2023-04-15T11:41:22.109Z,46.91
2023-04-15T11:43:50.163Z,47.93
2023-04-15T11:46:19.752Z,49.43
2023-04-15T11:48:48.430Z,47.84
2023-04-15T11:51:16.408Z,51.62
2023-04-15T11:53:46.428Z,49.54
2023-04-15T11:56:19.561Z,50.17
2023-04-15T11:58:47.809Z,51.15
2023-04-15T12:01:15.579Z,50.86
2023-04-15T12:03:47.297Z,52.54
2023-04-15T12:06:19.092Z,52.40
2023-04-15T12:08:58.423Z,51.41
2023-04-15T12:11:41.408Z,53.71
2023-04-15T12:14:25.694Z,54.29
2023-04-15T12:16:58.368Z,55.14
2023-04-15T12:19:29.765Z,54.32
2023-04-15T12:22:01.124Z,55.92
2023-04-15T12:24:29.308Z,56.23
2023-04-15T12:27:02.719Z,55.99
2023-04-15T12:29:31.572Z,56.29
2023-04-15T12:32:01.332Z,56.59
2023-04-15T12:34:32.984Z,56.56
2023-04-15T12:37:03.345Z,57.08
2023-04-15T12:39:33.055Z,58.46
2023-04-15T12:42:01.491Z,57.90
2023-04-15T12:44:30.113Z,59.09
2023-04-15T12:46:58.640Z,59.74
2023-04-15T12:49:27.389Z,59.78
2023-04-15T12:52:00.681Z,59.13
2023-04-15T12:54:28.985Z,60.00
2023-04-15T12:56:57.639Z,61.24
2023-04-15T12:59:25.945Z,61.59
2023-04-15T13:01:54.725Z,61.10
2023-04-15T13:04:23.302Z,62.10
2023-04-15T13:06:51.340Z,63.31
2023-04-15T13:09:20.594Z,63.61
2023-04-15T13:11:48.448Z,62.56
2023-04-15T13:14:16.393Z,63.72
2023-04-15T13:16:44.182Z,64.26
2023-04-15T13:19:11.984Z,64.08
2023-04-15T13:21:39.890Z,63.96
2023-04-15T13:24:08.579Z,64.91
2023-04-15T13:26:38.029Z,66.94
2023-04-15T13:29:06.029Z,66.65
2023-04-15T13:31:33.845Z,67.02
2023-04-15T13:34:01.852Z,67.55
2023-04-15T13:36:29.777Z,68.26
2023-04-15T13:38:58.360Z,69.55
2023-04-15T13:41:26.319Z,68.85
2023-04-15T13:43:55.702Z,70.26
2023-04-15T13:46:23.530Z,69.54
2023-04-15T13:48:51.344Z,70.00
2023-04-15T13:51:19.129Z,70.03
2023-04-15T13:53:46.959Z,69.27
2023-04-15T13:56:14.822Z,70.48
2023-04-15T13:58:42.724Z,70.92
2023-04-15T14:01:11.993Z,72.20
2023-04-15T14:03:40.111Z,73.08
2023-04-15T14:06:08.329Z,73.66
2023-04-15T14:08:36.402Z,75.39
2023-04-15T14:11:04.641Z,75.19
2023-04-15T14:13:33.485Z,74.37
2023-04-15T14:16:01.481Z,73.53
2023-04-15T14:18:30.922Z,75.22
2023-04-15T14:20:58.691Z,75.18
2023-04-15T14:23:26.727Z,73.73
2023-04-15T14:25:54.619Z,74.63
2023-04-15T14:28:22.464Z,75.90
2023-04-15T14:30:50.373Z,75.86
2023-04-15T14:33:18.452Z,76.77
2023-04-15T14:35:48.278Z,75.98
2023-04-15T14:38:16.217Z,78.22
2023-04-15T14:40:44.715Z,78.37
2023-04-15T14:43:12.857Z,78.35
2023-04-15T14:45:43.629Z,77.03
2023-04-15T14:48:13.853Z,77.18
2023-04-15T14:50:42.179Z,77.34
2023-04-15T14:53:11.303Z,77.86
2023-04-15T14:55:39.137Z,76.97
2023-04-15T14:58:08.149Z,77.42
2023-04-15T15:00:39.208Z,77.97
2023-04-15T15:03:12.598Z,79.07
2023-04-15T15:05:41.154Z,79.57
2023-04-15T15:08:09.662Z,81.42
2023-04-15T15:10:48.085Z,81.95
2023-04-15T15:13:16.974Z,81.58
2023-04-15T15:15:44.901Z,81.72
2023-04-15T15:18:12.791Z,81.76
2023-04-15T15:20:40.836Z,84.03
2023-04-15T15:23:08.729Z,84.05
2023-04-15T15:25:38.040Z,87.01
2023-04-15T15:28:06.291Z,85.05
2023-04-15T15:30:34.151Z,87.75
2023-04-15T15:33:02.102Z,86.73
2023-04-15T15:35:30.178Z,87.27
2023-04-15T15:37:58.111Z,87.58
2023-04-15T15:40:26.140Z,88.26
2023-04-15T15:42:55.524Z,87.15
2023-04-15T15:45:23.390Z,87.34
2023-04-15T15:47:51.363Z,87.90
2023-04-15T15:50:19.331Z,86.57
2023-04-15T15:52:47.286Z,87.86
2023-04-15T15:55:15.340Z,88.03
2023-04-15T15:57:43.145Z,88.48
2023-04-15T16:00:13.882Z,88.44
2023-04-15T16:05:12.885Z,89.90
2023-04-15T16:07:40.749Z,89.04
2023-04-15T16:10:09.865Z,90.21
2023-04-15T16:12:37.712Z,89.87
2023-04-15T16:15:06.456Z,89.63
2023-04-15T16:17:36.286Z,89.37
2023-04-15T16:20:05.922Z,88.91
2023-04-15T16:22:34.277Z,88.20
2023-04-15T16:25:02.335Z,88.39
2023-04-15T16:27:30.367Z,88.96
2023-04-15T16:29:59.373Z,88.48
2023-04-15T16:32:27.517Z,89.22
2023-04-15T16:34:56.793Z,90.06
2023-04-15T16:37:24.627Z,90.61
2023-04-15T16:39:52.412Z,90.89
2023-04-15T16:42:20.364Z,91.16
2023-04-15T16:44:48.219Z,90.92
2023-04-15T16:47:16.440Z,90.74
2023-04-15T16:49:44.298Z,91.25
2023-04-15T16:52:13.523Z,91.95
2023-04-15T16:54:41.672Z,91.94
2023-04-15T16:57:09.765Z,92.27
2023-04-15T16:59:37.589Z,92.48
2023-04-15T17:02:05.513Z,92.23
2023-04-15T17:04:34.896Z,93.71
2023-04-15T17:07:02.880Z,94.65
2023-04-15T17:09:32.139Z,94.44
2023-04-15T17:11:59.966Z,94.65
2023-04-15T17:14:29.451Z,94.88
2023-04-15T17:16:57.487Z,95.09
2023-04-15T17:19:26.710Z,95.06
2023-04-15T17:21:55.159Z,95.59
2023-04-15T17:24:23.157Z,95.62
2023-04-15T17:26:52.396Z,94.83
2023-04-15T17:29:20.246Z,95.26
2023-04-15T17:31:48.306Z,94.64
2023-04-15T17:34:16.315Z,95.41
2023-04-15T17:36:44.232Z,95.33
2023-04-15T17:39:14.013Z,94.87
2023-04-15T17:41:41.976Z,94.46
2023-04-15T17:44:11.150Z,94.59
2023-04-15T17:46:39.035Z,94.42
2023-04-15T17:49:07.121Z,95.20
2023-04-15T17:51:35.154Z,94.40
2023-04-15T17:54:08.662Z,95.13
2023-04-15T17:56:36.580Z,94.90
2023-04-15T17:59:04.400Z,95.09
2023-04-15T18:01:33.630Z,95.41
2023-04-15T18:04:01.849Z,95.00
2023-04-15T18:06:29.955Z,95.21
2023-04-15T18:08:58.966Z,95.17
2023-04-15T18:11:27.346Z,95.13
2023-04-15T18:13:55.211Z,95.79
2023-04-15T18:16:23.307Z,95.12
2023-04-15T18:18:52.870Z,96.12
2023-04-15T18:21:20.913Z,96.99
2023-04-15T18:23:48.948Z,98.14
2023-04-15T18:26:16.810Z,98.84
2023-04-15T18:28:44.819Z,99.56
2023-04-15T18:31:12.677Z,100.00
2023-04-15T18:33:40.630Z,100.00
2023-04-15T18:36:11.063Z,100.00
2023-04-15T18:38:38.932Z,100.00
2023-04-15T18:41:08.807Z,99.96
2023-04-15T18:43:37.783Z,99.77
2023-04-15T18:46:10.206Z,99.27
2023-04-15T18:48:38.132Z,98.85
2023-04-15T18:51:05.969Z,98.61
2023-04-15T18:53:35.273Z,99.37
2023-04-15T18:56:03.437Z,99.91
2023-04-15T18:59:09.958Z,100.00
2023-04-15T19:01:19.323Z,100.00
2023-04-15T19:03:47.379Z,100.00
2023-04-15T19:06:15.375Z,100.00
2023-04-15T19:08:44.588Z,100.00
2023-04-15T19:11:12.578Z,100.00
2023-04-15T19:13:40.568Z,100.00
2023-04-15T19:16:08.458Z,100.00
2023-04-15T19:18:36.464Z,100.00
2023-04-15T19:21:04.492Z,100.00
2023-04-15T19:23:32.852Z,100.00
2023-04-15T19:26:02.276Z,100.00
2023-04-15T19:28:30.348Z,100.00
2023-04-15T19:30:58.968Z,100.00
2023-04-15T19:33:31.110Z,100.00
2023-04-15T19:35:59.336Z,100.00
2023-04-15T19:38:27.537Z,100.00
2023-04-15T19:40:55.506Z,100.00
2023-04-15T19:43:25.048Z,100.00
2023-04-15T19:45:54.638Z,100.00
2023-04-15T19:48:24.245Z,100.00
2023-04-15T19:50:52.127Z,100.00
2023-04-15T19:53:19.923Z,100.00
2023-04-15T19:55:48.493Z,100.00
2023-04-15T19:58:16.608Z,100.00
2023-04-15T20:00:46.525Z,100.00
2023-04-15T20:03:14.951Z,100.00
2023-04-15T20:05:43.390Z,100.00
2023-04-15T20:08:11.370Z,100.00
2023-04-15T20:10:39.406Z,100.00
2023-04-15T20:13:07.206Z,100.00
2023-04-15T20:15:35.143Z,100.00
2023-04-15T20:18:04.357Z,100.00
2023-04-15T20:20:32.293Z,100.00
2023-04-15T20:23:00.141Z,100.00
2023-04-15T20:25:28.165Z,100.00
2023-04-15T20:27:56.779Z,100.00
2023-04-15T20:30:24.609Z,100.00
2023-04-15T20:32:52.544Z,100.00
2023-04-15T20:35:21.783Z,100.00
2023-04-15T20:37:50.447Z,100.00
2023-04-15T20:40:19.405Z,100.00
2023-04-15T20:42:47.599Z,100.00
2023-04-15T20:45:15.506Z,100.00
2023-04-15T20:47:43.876Z,100.00
2023-04-15T20:50:12.762Z,100.00
2023-04-15T20:52:41.929Z,100.00
2023-04-15T20:55:10.456Z,100.00
2023-04-15T20:57:38.340Z,100.00
2023-04-15T21:00:09.378Z,100.00
2023-04-15T21:02:37.510Z,100.00
2023-04-15T21:05:06.091Z,100.00
2023-04-15T21:07:33.982Z,100.00
2023-04-15T21:10:03.292Z,100.00
2023-04-15T21:12:31.174Z,100.00
2023-04-15T21:14:59.009Z,100.00
2023-04-15T21:17:26.985Z,100.00
2023-04-15T21:19:54.899Z,100.00
2023-04-15T21:22:22.890Z,100.00
2023-04-15T21:24:50.910Z,100.00
2023-04-15T21:27:20.264Z,100.00
2023-04-15T21:29:48.222Z,100.00
2023-04-15T21:32:16.531Z,100.00
2023-04-15T21:34:44.443Z,100.00
2023-04-15T21:37:12.636Z,100.00
2023-04-15T21:39:40.778Z,100.00
2023-04-15T21:42:08.639Z,100.00
2023-04-15T21:44:38.012Z,100.00
2023-04-15T21:47:05.936Z,100.00
2023-04-15T21:49:33.985Z,100.00
2023-04-15T21:52:01.805Z,100.00
2023-04-15T21:54:31.062Z,100.00
2023-04-15T21:56:58.846Z,100.00
2023-04-15T21:59:27.248Z,100.00
2023-04-15T22:01:56.640Z,100.00
2023-04-15T22:04:24.916Z,100.00
2023-04-15T22:06:55.659Z,100.00
2023-04-15T22:09:23.619Z,100.00
2023-04-15T22:11:51.499Z,100.00
2023-04-15T22:14:19.303Z,100.00
2023-04-15T22:16:47.284Z,100.00
2023-04-15T22:19:16.626Z,100.00
2023-04-15T22:21:44.578Z,100.00
2023-04-15T22:24:32.593Z,100.00
2023-04-15T22:27:00.577Z,100.00
2023-04-15T22:29:28.468Z,100.00
2023-04-15T22:31:56.421Z,100.00
2023-04-15T22:34:25.773Z,100.00
2023-04-15T22:36:53.881Z,100.00
2023-04-15T22:39:21.910Z,100.00
2023-04-15T22:41:50.779Z,100.00
2023-04-15T22:44:18.666Z,100.00
2023-04-15T22:46:46.514Z,100.00
2023-04-15T22:49:14.377Z,100.00
2023-04-15T22:51:44.363Z,100.00
2023-04-15T22:54:12.769Z,100.00
2023-04-15T22:56:40.827Z,100.00
2023-04-15T22:59:08.874Z,100.00
2023-04-15T23:01:38.116Z,100.00
2023-04-15T23:04:09.431Z,100.00
2023-04-15T23:06:53.001Z,100.00
2023-04-15T23:09:21.641Z,100.00
2023-04-15T23:11:54.724Z,100.00
2023-04-15T23:14:22.562Z,100.00
2023-04-15T23:16:50.412Z,100.00
2023-04-15T23:19:18.204Z,100.00
2023-04-15T23:21:46.584Z,100.00
2023-04-15T23:24:15.917Z,100.00
2023-04-15T23:26:43.979Z,100.00
2023-04-15T23:29:12.015Z,100.00
2023-04-15T23:31:41.422Z,100.00
2023-04-15T23:34:09.480Z,100.00
2023-04-15T23:36:37.311Z,100.00
2023-04-15T23:39:05.193Z,100.00
2023-04-15T23:41:34.362Z,100.00
2023-04-15T23:44:02.204Z,100.00
2023-04-15T23:46:30.100Z,100.00
2023-04-15T23:48:58.127Z,100.00
2023-04-15T23:51:25.940Z,100.00
2023-04-15T23:53:53.801Z,100.00
2023-04-15T23:56:21.776Z,100.00
2023-04-15T23:58:50.995Z,100.00
